createdAt,value
2022-12-03T00:00:37.041Z,8.43
2022-12-03T00:02:44.095Z,7.30
2022-12-03T00:04:51.586Z,10.63
2022-12-03T00:07:00.377Z,9.75
2022-12-03T00:09:07.969Z,7.80
2022-12-03T00:11:14.688Z,9.82
2022-12-03T00:13:21.770Z,9.55
2022-12-03T00:15:28.605Z,12.77
2022-12-03T00:17:35.722Z,16.63
2022-12-03T00:19:42.545Z,19.80
2022-12-03T00:21:49.831Z,31.25
2022-12-03T00:23:59.366Z,27.73
2022-12-03T00:26:06.808Z,28.45
2022-12-03T00:28:14.191Z,25.67
2022-12-03T00:30:20.963Z,28.83
2022-12-03T00:32:27.785Z,27.33
2022-12-03T00:34:34.971Z,31.17
2022-12-03T00:36:41.897Z,28.90
2022-12-03T00:38:48.768Z,24.13
2022-12-03T00:40:57.642Z,20.48
2022-12-03T00:43:04.410Z,17.00
2022-12-03T00:45:12.308Z,18.65
2022-12-03T00:47:19.082Z,22.20
2022-12-03T00:49:26.110Z,18.55
2022-12-03T00:51:32.817Z,20.40
2022-12-03T00:53:39.960Z,17.88
2022-12-03T00:55:46.937Z,16.73
2022-12-03T00:57:55.808Z,13.90
2022-12-03T01:00:02.631Z,15.40
2022-12-03T01:02:09.835Z,16.90
2022-12-03T01:04:16.752Z,18.55
2022-12-03T01:06:26.756Z,16.50
2022-12-03T01:08:33.615Z,19.33
2022-12-03T01:10:40.741Z,18.55
2022-12-03T01:12:47.564Z,15.63
2022-12-03T01:14:56.410Z,14.93
2022-12-03T01:17:03.260Z,14.00
2022-12-03T01:19:11.567Z,15.48
2022-12-03T01:21:18.441Z,15.98
2022-12-03T01:23:25.572Z,13.40
2022-12-03T01:25:32.344Z,14.25
2022-12-03T01:27:39.679Z,13.43
2022-12-03T01:29:46.504Z,13.27
2022-12-03T01:32:11.860Z,12.73
2022-12-03T01:34:18.632Z,14.05
2022-12-03T01:36:25.869Z,10.38
2022-12-03T01:38:32.689Z,13.23
2022-12-03T01:40:39.817Z,11.20
2022-12-03T01:42:47.000Z,11.65
2022-12-03T01:44:55.804Z,11.77
2022-12-03T01:47:07.252Z,14.27
2022-12-03T01:49:20.988Z,13.05
2022-12-03T01:51:27.962Z,11.38
2022-12-03T01:53:35.196Z,10.88
2022-12-03T01:55:45.547Z,9.10
2022-12-03T01:57:58.825Z,7.82
2022-12-03T02:00:07.083Z,8.65
2022-12-03T02:02:20.716Z,9.75
2022-12-03T02:04:28.183Z,12.43
2022-12-03T02:06:35.539Z,11.25
2022-12-03T02:08:42.721Z,10.50
2022-12-03T02:10:50.005Z,10.20
2022-12-03T02:13:01.490Z,10.15
2022-12-03T02:15:10.159Z,10.07
2022-12-03T02:17:19.640Z,10.95
2022-12-03T02:19:30.818Z,7.32
2022-12-03T02:21:44.244Z,10.10
2022-12-03T02:24:07.855Z,19.17
2022-12-03T02:26:16.425Z,7.80
2022-12-03T02:28:23.916Z,5.57
2022-12-03T02:30:32.642Z,7.20
2022-12-03T02:32:41.091Z,4.85
2022-12-03T02:34:49.452Z,6.00
2022-12-03T02:36:56.639Z,6.40
2022-12-03T02:39:03.916Z,7.32
2022-12-03T02:41:33.829Z,6.93
2022-12-03T02:43:41.935Z,7.20
2022-12-03T02:45:50.805Z,6.80
2022-12-03T02:48:02.293Z,9.05
2022-12-03T02:50:11.056Z,8.63
2022-12-03T02:52:18.085Z,10.02
2022-12-03T02:54:25.113Z,7.95
2022-12-03T02:56:35.008Z,4.72
2022-12-03T02:58:45.262Z,5.60
2022-12-03T03:00:53.587Z,5.10
2022-12-03T03:03:00.750Z,4.82
2022-12-03T03:05:10.850Z,4.47
2022-12-03T03:07:18.390Z,4.22
2022-12-03T03:09:26.903Z,4.18
2022-12-03T03:11:34.854Z,4.90
2022-12-03T03:13:45.055Z,4.55
2022-12-03T03:15:52.390Z,5.20
2022-12-03T03:17:59.470Z,4.93
2022-12-03T03:20:08.035Z,6.88
2022-12-03T03:22:16.393Z,6.13
2022-12-03T03:24:23.679Z,4.60
2022-12-03T03:26:30.858Z,4.97
2022-12-03T03:28:41.369Z,5.57
2022-12-03T03:30:50.755Z,3.38
2022-12-03T03:32:57.932Z,3.47
2022-12-03T03:35:05.118Z,2.22
2022-12-03T03:37:12.142Z,3.53
2022-12-03T03:39:19.277Z,3.55
2022-12-03T03:41:26.404Z,2.80
2022-12-03T03:43:35.889Z,3.20
2022-12-03T03:45:42.735Z,2.13
2022-12-03T03:47:52.608Z,2.67
2022-12-03T03:49:59.788Z,1.98
2022-12-03T03:52:06.970Z,2.17
2022-12-03T03:54:13.896Z,2.38
2022-12-03T03:56:22.922Z,2.42
2022-12-03T03:58:29.677Z,1.80
2022-12-03T04:00:39.943Z,1.90
2022-12-03T04:02:47.077Z,2.40
2022-12-03T04:04:56.461Z,1.50
2022-12-03T04:07:03.385Z,1.80
2022-12-03T04:09:10.414Z,2.10
2022-12-03T04:11:33.570Z,3.35
2022-12-03T04:13:41.316Z,3.80
2022-12-03T04:15:48.036Z,3.05
2022-12-03T04:18:08.480Z,1.38
2022-12-03T04:20:18.118Z,1.50
2022-12-03T04:22:41.790Z,3.78
2022-12-03T04:24:49.274Z,1.15
2022-12-03T04:27:12.841Z,1.60
2022-12-03T04:29:34.154Z,1.80
2022-12-03T04:31:58.026Z,1.38
2022-12-03T04:34:21.541Z,1.95
2022-12-03T04:36:30.257Z,2.05
2022-12-03T04:38:37.492Z,2.72
2022-12-03T04:41:00.698Z,3.15
2022-12-03T04:43:07.777Z,3.35
2022-12-03T04:45:14.958Z,2.92
2022-12-03T04:47:23.627Z,5.55
2022-12-03T04:49:30.448Z,5.43
2022-12-03T04:51:39.270Z,1.77
2022-12-03T04:53:46.483Z,2.25
2022-12-03T04:55:53.580Z,3.67
2022-12-03T04:58:00.354Z,3.03
2022-12-03T05:00:08.353Z,2.95
2022-12-03T05:02:15.144Z,2.85
2022-12-03T05:04:22.308Z,2.08
2022-12-03T05:06:29.183Z,1.63
2022-12-03T05:08:38.059Z,3.15
2022-12-03T05:10:44.876Z,1.85
2022-12-03T05:12:51.961Z,1.98
2022-12-03T05:14:58.985Z,2.97
2022-12-03T05:17:06.115Z,2.67
2022-12-03T05:19:13.195Z,3.40
2022-12-03T05:21:19.045Z,2.53
2022-12-03T05:23:25.968Z,1.95
2022-12-03T05:25:34.841Z,2.42
2022-12-03T05:27:41.664Z,2.10
2022-12-03T05:29:48.691Z,2.08
2022-12-03T05:31:55.721Z,2.30
2022-12-03T05:34:02.900Z,4.05
2022-12-03T05:36:09.880Z,2.80
2022-12-03T05:38:17.061Z,2.83
2022-12-03T05:40:23.984Z,4.68
2022-12-03T05:42:49.444Z,3.20
2022-12-03T05:44:56.519Z,2.47
2022-12-03T05:47:03.808Z,2.92
2022-12-03T05:49:10.632Z,3.03
2022-12-03T05:51:17.865Z,3.47
2022-12-03T05:53:24.586Z,3.17
2022-12-03T05:55:32.176Z,1.42
2022-12-03T05:57:41.097Z,3.30
2022-12-03T05:59:48.485Z,4.50
2022-12-03T06:01:55.769Z,2.05
2022-12-03T06:04:02.711Z,1.80
2022-12-03T06:06:10.778Z,1.52
2022-12-03T06:08:17.672Z,1.90
2022-12-03T06:10:25.929Z,2.47
2022-12-03T06:12:33.162Z,1.10
2022-12-03T06:14:42.084Z,1.35
2022-12-03T06:16:49.215Z,1.15
2022-12-03T06:18:56.140Z,1.95
2022-12-03T06:21:03.221Z,2.58
2022-12-03T06:23:10.093Z,2.38
2022-12-03T06:25:18.403Z,1.30
2022-12-03T06:27:26.097Z,1.42
2022-12-03T06:29:33.174Z,1.85
2022-12-03T06:31:41.844Z,2.17
2022-12-03T06:33:49.023Z,1.17
2022-12-03T06:35:55.848Z,1.23
2022-12-03T06:38:03.080Z,1.35
2022-12-03T06:40:11.234Z,1.67
2022-12-03T06:42:18.414Z,1.30
2022-12-03T06:44:25.187Z,1.77
2022-12-03T06:46:32.760Z,1.35
2022-12-03T06:48:41.345Z,1.75
2022-12-03T06:50:48.525Z,1.50
2022-12-03T06:52:55.348Z,1.50
2022-12-03T06:55:02.634Z,1.77
2022-12-03T06:57:09.565Z,3.80
2022-12-03T06:59:16.690Z,2.42
2022-12-03T07:01:24.114Z,2.38
2022-12-03T07:03:31.313Z,2.08
2022-12-03T07:05:40.691Z,1.33
2022-12-03T07:07:51.303Z,1.55
2022-12-03T07:09:58.435Z,2.40
2022-12-03T07:12:05.564Z,2.25
2022-12-03T07:14:13.872Z,2.55
2022-12-03T07:16:20.995Z,1.90
2022-12-03T07:18:27.929Z,2.47
2022-12-03T07:20:35.058Z,2.53
2022-12-03T07:22:43.673Z,1.65
2022-12-03T07:24:51.215Z,1.95
2022-12-03T07:26:58.293Z,2.70
2022-12-03T07:29:05.628Z,2.70
2022-12-03T07:31:12.440Z,2.13
2022-12-03T07:33:20.247Z,2.63
2022-12-03T07:35:27.020Z,2.90
2022-12-03T07:37:34.098Z,3.38
2022-12-03T07:39:43.123Z,3.47
2022-12-03T07:41:50.254Z,4.78
2022-12-03T07:43:58.868Z,2.92
2022-12-03T07:46:06.460Z,2.08
2022-12-03T07:48:13.693Z,2.05
2022-12-03T07:50:20.567Z,2.95
2022-12-03T07:52:28.980Z,2.40
2022-12-03T07:54:35.855Z,3.45
2022-12-03T07:56:44.773Z,2.15
2022-12-03T07:58:51.598Z,2.13
2022-12-03T08:00:58.778Z,2.22
2022-12-03T08:03:05.602Z,3.55
2022-12-03T08:05:12.886Z,2.38
2022-12-03T08:07:19.663Z,2.83
2022-12-03T08:09:26.943Z,2.42
2022-12-03T08:11:35.302Z,2.55
2022-12-03T08:13:44.379Z,1.80
2022-12-03T08:15:51.405Z,2.58
2022-12-03T08:18:00.123Z,1.30
2022-12-03T08:20:14.372Z,1.95
2022-12-03T08:22:21.759Z,2.50
2022-12-03T08:24:28.992Z,1.45
2022-12-03T08:26:35.867Z,1.50
2022-12-03T08:28:44.688Z,0.95
2022-12-03T08:31:02.105Z,1.40
2022-12-03T08:33:20.964Z,1.50
2022-12-03T08:35:29.627Z,1.25
2022-12-03T08:37:39.113Z,1.45
2022-12-03T08:39:49.470Z,2.00
2022-12-03T08:42:15.954Z,2.10
2022-12-03T08:44:30.763Z,2.20
2022-12-03T08:46:37.536Z,1.15
2022-12-03T08:48:48.658Z,1.98
2022-12-03T08:50:58.099Z,2.10
2022-12-03T08:53:28.829Z,1.50
2022-12-03T08:55:38.876Z,1.35
2022-12-03T08:57:46.163Z,1.10
2022-12-03T08:59:57.697Z,1.38
2022-12-03T09:02:04.980Z,2.53
2022-12-03T09:04:29.872Z,1.83
2022-12-03T09:06:36.700Z,1.88
2022-12-03T09:08:43.791Z,2.97
2022-12-03T09:10:50.601Z,1.73
2022-12-03T09:12:57.734Z,4.07
2022-12-03T09:15:06.602Z,3.17
2022-12-03T09:17:13.940Z,2.67
2022-12-03T09:19:20.848Z,5.63
2022-12-03T09:21:28.148Z,3.67
2022-12-03T09:23:36.866Z,2.97
2022-12-03T09:25:43.794Z,2.90
2022-12-03T09:27:51.023Z,1.83
2022-12-03T09:29:57.900Z,2.05
2022-12-03T09:32:06.861Z,2.40
2022-12-03T09:34:14.260Z,1.85
2022-12-03T09:36:21.492Z,3.20
2022-12-03T09:38:29.338Z,4.15
2022-12-03T09:40:37.186Z,3.22
2022-12-03T09:42:44.470Z,5.03
2022-12-03T09:44:51.935Z,4.50
2022-12-03T09:47:01.086Z,4.07
2022-12-03T09:49:16.117Z,3.63
2022-12-03T09:51:23.436Z,4.90
2022-12-03T09:53:31.386Z,4.47
2022-12-03T09:55:38.364Z,4.38
2022-12-03T09:57:45.450Z,4.28
2022-12-03T09:59:52.619Z,2.05
2022-12-03T10:02:01.937Z,4.32
2022-12-03T10:04:10.876Z,3.42
2022-12-03T10:06:22.212Z,3.78
2022-12-03T10:08:35.536Z,3.45
2022-12-03T10:10:44.918Z,8.27
2022-12-03T10:12:52.307Z,6.57
2022-12-03T10:14:59.541Z,2.75
2022-12-03T10:17:07.438Z,3.20
2022-12-03T10:19:23.216Z,3.35
2022-12-03T10:21:33.215Z,4.65
2022-12-03T10:23:40.191Z,8.05
2022-12-03T10:25:55.257Z,3.72
2022-12-03T10:28:04.845Z,4.78
2022-12-03T10:30:20.732Z,5.28
2022-12-03T10:32:30.626Z,5.22
2022-12-03T10:34:40.828Z,8.73
2022-12-03T10:36:47.908Z,5.07
2022-12-03T10:39:11.882Z,4.32
2022-12-03T10:41:27.563Z,5.53
2022-12-03T10:43:34.395Z,7.28
2022-12-03T10:45:42.122Z,12.20
2022-12-03T10:48:06.885Z,15.05
2022-12-03T10:50:22.097Z,20.95
2022-12-03T10:52:28.867Z,22.60
2022-12-03T10:54:38.559Z,18.15
2022-12-03T10:56:45.995Z,13.52
2022-12-03T10:58:53.535Z,14.55
2022-12-03T11:01:02.154Z,14.05
2022-12-03T11:03:21.376Z,17.58
2022-12-03T11:05:31.362Z,19.25
2022-12-03T11:07:41.709Z,20.08
2022-12-03T11:09:50.229Z,20.40
2022-12-03T11:11:57.719Z,20.60
2022-12-03T11:14:05.571Z,20.80
2022-12-03T11:16:12.625Z,18.75
2022-12-03T11:18:51.571Z,24.83
2022-12-03T11:21:17.595Z,22.98
2022-12-03T11:23:56.367Z,30.95
2022-12-03T11:26:03.650Z,29.33
2022-12-03T11:28:35.306Z,29.48
2022-12-03T11:31:02.437Z,24.20
2022-12-03T11:33:23.102Z,26.45
2022-12-03T11:35:38.375Z,26.65
2022-12-03T11:37:46.939Z,28.60
2022-12-03T11:40:39.762Z,24.42
2022-12-03T11:42:47.948Z,21.38
2022-12-03T11:45:19.452Z,20.60
2022-12-03T11:47:26.679Z,20.20
2022-12-03T11:49:50.457Z,20.08
2022-12-03T11:51:57.733Z,20.40
2022-12-03T11:54:06.561Z,17.83
2022-12-03T11:56:21.468Z,18.30
2022-12-03T11:58:31.106Z,25.80
2022-12-03T12:00:38.337Z,24.23
2022-12-03T12:02:45.156Z,24.52
2022-12-03T12:04:52.292Z,24.27
2022-12-03T12:07:02.649Z,23.52
2022-12-03T12:09:11.673Z,22.00
2022-12-03T12:11:22.183Z,18.58
2022-12-03T12:13:53.224Z,14.77
2022-12-03T12:16:00.717Z,14.23
2022-12-03T12:18:38.922Z,17.63
2022-12-03T12:20:46.205Z,16.60
2022-12-03T12:22:53.284Z,18.95
2022-12-03T12:25:03.387Z,24.58
2022-12-03T12:27:11.694Z,17.80
2022-12-03T12:29:18.928Z,19.40
2022-12-03T12:31:25.988Z,17.50
2022-12-03T12:33:35.695Z,18.92
2022-12-03T12:35:43.694Z,20.73
2022-12-03T12:37:59.838Z,15.88
2022-12-03T12:40:16.551Z,16.90
2022-12-03T12:42:37.809Z,19.10
2022-12-03T12:44:44.834Z,19.13
2022-12-03T12:46:54.919Z,18.08
2022-12-03T12:49:02.625Z,18.35
2022-12-03T12:51:16.022Z,19.17
2022-12-03T12:53:26.616Z,20.05
2022-12-03T12:55:35.547Z,21.70
2022-12-03T12:57:42.360Z,23.20
2022-12-03T12:59:49.543Z,20.80
2022-12-03T13:01:56.423Z,18.83
2022-12-03T13:04:04.265Z,19.58
2022-12-03T13:06:15.236Z,21.45
2022-12-03T13:08:27.094Z,20.23
2022-12-03T13:10:44.497Z,17.42
2022-12-03T13:12:51.372Z,21.25
2022-12-03T13:15:02.807Z,20.27
2022-12-03T13:17:18.177Z,20.75
2022-12-03T13:19:28.019Z,24.17
2022-12-03T13:21:41.499Z,23.23
2022-12-03T13:23:48.681Z,23.55
2022-12-03T13:26:03.747Z,26.48
2022-12-03T13:28:17.790Z,36.95
2022-12-03T13:30:27.840Z,33.63
2022-12-03T13:32:39.577Z,36.63
2022-12-03T13:34:47.698Z,34.03
2022-12-03T13:36:58.595Z,35.78
2022-12-03T13:39:12.797Z,35.75
2022-12-03T13:41:41.379Z,34.47
2022-12-03T13:43:48.255Z,28.17
2022-12-03T13:45:57.101Z,27.85
2022-12-03T13:48:05.331Z,27.65
2022-12-03T13:50:23.929Z,27.85
2022-12-03T13:52:35.053Z,21.38
2022-12-03T13:54:42.951Z,23.77
2022-12-03T13:56:51.773Z,23.77
2022-12-03T13:59:01.111Z,23.85
2022-12-03T14:01:08.302Z,19.27
2022-12-03T14:03:15.533Z,19.17
2022-12-03T14:05:22.446Z,19.50
2022-12-03T14:07:29.654Z,20.83
2022-12-03T14:09:36.552Z,18.95
2022-12-03T14:12:00.121Z,15.80
2022-12-03T14:14:08.581Z,15.68
2022-12-03T14:16:16.840Z,15.15
2022-12-03T14:18:23.658Z,13.20
2022-12-03T14:20:30.689Z,11.57
2022-12-03T14:22:38.995Z,13.52
2022-12-03T14:24:47.918Z,13.43
2022-12-03T14:26:54.791Z,11.88
2022-12-03T14:29:05.860Z,11.05
2022-12-03T14:31:17.087Z,14.02
2022-12-03T14:33:23.915Z,12.35
2022-12-03T14:35:30.787Z,11.85
2022-12-03T14:37:37.619Z,11.93
2022-12-03T14:39:44.740Z,16.45
2022-12-03T14:42:10.561Z,12.55
2022-12-03T14:44:17.592Z,12.13
2022-12-03T14:46:26.283Z,12.35
2022-12-03T14:48:33.695Z,12.32
2022-12-03T14:50:40.574Z,14.35
2022-12-03T14:52:47.797Z,14.27
2022-12-03T14:54:54.521Z,13.55
2022-12-03T14:57:01.602Z,10.15
2022-12-03T14:59:08.627Z,14.07
2022-12-03T15:01:15.866Z,10.75
2022-12-03T15:03:24.937Z,12.13
2022-12-03T15:05:31.915Z,17.23
2022-12-03T15:07:40.414Z,12.85
2022-12-03T15:09:47.561Z,13.40
2022-12-03T15:11:56.074Z,12.48
2022-12-03T15:14:03.356Z,12.70
2022-12-03T15:16:10.825Z,11.70
2022-12-03T15:18:18.588Z,11.93
2022-12-03T15:20:27.051Z,13.75
2022-12-03T15:22:34.180Z,11.75
2022-12-03T15:24:41.003Z,13.57
2022-12-03T15:26:48.086Z,13.95
2022-12-03T15:28:54.957Z,14.95
2022-12-03T15:31:02.162Z,15.48
2022-12-03T15:33:09.218Z,13.00
2022-12-03T15:35:19.523Z,12.15
2022-12-03T15:37:29.059Z,14.75
2022-12-03T15:39:37.369Z,13.07
2022-12-03T15:41:44.189Z,15.50
2022-12-03T15:43:52.352Z,15.20
2022-12-03T15:45:59.218Z,15.32
2022-12-03T15:48:06.506Z,16.25
2022-12-03T15:50:14.510Z,13.10
2022-12-03T15:52:21.480Z,16.05
2022-12-03T15:54:29.993Z,16.42
2022-12-03T15:56:38.508Z,16.45
2022-12-03T15:58:45.436Z,17.30
2022-12-03T16:00:52.819Z,15.15
2022-12-03T16:02:59.764Z,14.35
2022-12-03T16:05:09.792Z,14.57
2022-12-03T16:07:16.719Z,13.27
2022-12-03T16:09:27.035Z,14.52
2022-12-03T16:11:36.201Z,11.85
2022-12-03T16:13:44.510Z,16.33
2022-12-03T16:15:51.381Z,13.43
2022-12-03T16:17:58.874Z,13.57
2022-12-03T16:20:05.599Z,12.43
2022-12-03T16:22:12.733Z,11.52
2022-12-03T16:24:19.650Z,16.73
2022-12-03T16:26:27.037Z,14.75
2022-12-03T16:28:35.652Z,15.77
2022-12-03T16:30:42.892Z,11.90
2022-12-03T16:32:49.709Z,13.40
2022-12-03T16:34:56.991Z,12.82
2022-12-03T16:37:03.765Z,13.93
2022-12-03T16:39:14.837Z,12.57
2022-12-03T16:41:23.454Z,14.32
2022-12-03T16:43:30.992Z,15.23
2022-12-03T16:46:03.473Z,13.93
2022-12-03T16:48:10.653Z,14.30
2022-12-03T16:50:24.456Z,15.38
2022-12-03T16:52:36.079Z,14.20
2022-12-03T16:54:42.945Z,15.77
2022-12-03T16:56:50.179Z,13.40
2022-12-03T16:58:57.211Z,13.52
2022-12-03T17:01:06.139Z,15.63
2022-12-03T17:03:13.067Z,14.93
2022-12-03T17:05:20.287Z,13.30
2022-12-03T17:07:27.169Z,16.55
2022-12-03T17:09:34.293Z,13.43
2022-12-03T17:11:41.014Z,12.40
2022-12-03T17:13:48.195Z,13.30
2022-12-03T17:15:55.221Z,14.63
2022-12-03T17:18:04.502Z,16.63
2022-12-03T17:20:13.578Z,16.52
2022-12-03T17:22:20.713Z,15.75
2022-12-03T17:24:27.890Z,13.15
2022-12-03T17:26:35.229Z,13.13
2022-12-03T17:28:42.102Z,15.63
2022-12-03T17:30:49.354Z,17.58
2022-12-03T17:32:56.365Z,14.60
2022-12-03T17:35:05.294Z,15.38
2022-12-03T17:37:12.056Z,11.10
2022-12-03T17:39:19.445Z,16.50
2022-12-03T17:41:27.237Z,16.38
2022-12-03T17:43:34.472Z,17.77
2022-12-03T17:45:41.686Z,17.38
2022-12-03T17:47:48.837Z,14.48
2022-12-03T17:49:56.215Z,12.98
2022-12-03T17:52:06.424Z,13.88
2022-12-03T17:54:13.352Z,15.55
2022-12-03T17:56:20.480Z,14.98
2022-12-03T17:58:27.765Z,14.73
2022-12-03T18:00:34.949Z,13.90
2022-12-03T18:02:41.769Z,14.80
2022-12-03T18:04:48.848Z,16.08
2022-12-03T18:07:00.606Z,14.90
2022-12-03T18:09:11.095Z,14.43
2022-12-03T18:11:17.970Z,14.40
2022-12-03T18:13:25.205Z,16.15
2022-12-03T18:15:32.437Z,15.52
2022-12-03T18:17:40.541Z,12.88
2022-12-03T18:19:47.361Z,13.57
2022-12-03T18:21:54.503Z,15.60
2022-12-03T18:24:04.081Z,12.85
2022-12-03T18:26:13.412Z,14.77
2022-12-03T18:28:20.236Z,13.25
2022-12-03T18:30:27.262Z,13.35
2022-12-03T18:32:34.108Z,11.85
2022-12-03T18:34:41.168Z,14.93
2022-12-03T18:36:48.558Z,14.88
2022-12-03T18:38:57.374Z,14.50
2022-12-03T18:41:05.272Z,12.82
2022-12-03T18:43:17.982Z,11.82
2022-12-03T18:45:24.857Z,10.40
2022-12-03T18:47:32.876Z,11.70
2022-12-03T18:49:39.785Z,12.50
2022-12-03T18:51:48.331Z,11.55
2022-12-03T18:53:55.477Z,13.93
2022-12-03T18:56:02.352Z,14.45
2022-12-03T18:58:09.533Z,14.07
2022-12-03T19:00:19.685Z,11.95
2022-12-03T19:03:01.159Z,9.60
2022-12-03T19:04:53.708Z,11.73
2022-12-03T19:07:01.409Z,10.63
2022-12-03T19:09:08.841Z,12.38
2022-12-03T19:11:16.177Z,10.73
2022-12-03T19:13:23.357Z,10.57
2022-12-03T19:15:31.973Z,10.73
2022-12-03T19:17:40.587Z,12.60
2022-12-03T19:19:47.461Z,10.00
2022-12-03T19:21:54.695Z,10.48
2022-12-03T19:24:24.146Z,10.32
2022-12-03T19:26:28.719Z,14.45
2022-12-03T19:28:36.057Z,11.88
2022-12-03T19:30:44.926Z,12.48
2022-12-03T19:32:52.725Z,11.10
2022-12-03T19:34:59.902Z,11.93
2022-12-03T19:37:06.674Z,10.60
2022-12-03T19:39:13.844Z,11.65
2022-12-03T19:41:20.940Z,11.77
2022-12-03T19:43:28.014Z,10.85
2022-12-03T19:45:35.060Z,11.80
2022-12-03T19:47:43.812Z,11.68
2022-12-03T19:49:50.839Z,12.48
2022-12-03T19:51:58.178Z,12.95
2022-12-03T19:54:05.356Z,12.68
2022-12-03T19:56:14.636Z,9.32
2022-12-03T19:58:21.461Z,11.57
2022-12-03T20:00:29.410Z,10.30
2022-12-03T20:02:36.402Z,10.13
2022-12-03T20:04:45.256Z,10.40
2022-12-03T20:06:52.132Z,10.50
2022-12-03T20:09:00.395Z,9.95
2022-12-03T20:11:16.992Z,10.05
2022-12-03T20:13:24.328Z,10.48
2022-12-03T20:15:31.867Z,9.63
2022-12-03T20:17:39.048Z,11.18
2022-12-03T20:19:47.613Z,9.68
2022-12-03T20:22:00.717Z,10.23
2022-12-03T20:24:10.067Z,10.57
2022-12-03T20:26:19.195Z,9.77
2022-12-03T20:28:26.015Z,9.23
2022-12-03T20:30:33.404Z,10.63
2022-12-03T20:32:45.079Z,8.68
2022-12-03T20:34:54.064Z,8.18
2022-12-03T20:37:00.836Z,8.68
2022-12-03T20:39:10.374Z,11.00
2022-12-03T20:41:19.449Z,12.73
2022-12-03T20:43:26.632Z,11.85
2022-12-03T20:45:33.467Z,8.60
2022-12-03T20:47:40.584Z,10.13
2022-12-03T20:49:47.254Z,9.20
2022-12-03T20:51:58.680Z,15.45
2022-12-03T20:54:09.502Z,13.38
2022-12-03T20:56:21.547Z,15.77
2022-12-03T20:58:28.523Z,11.88
2022-12-03T21:00:35.910Z,12.57
2022-12-03T21:02:43.138Z,13.10
2022-12-03T21:04:50.222Z,12.48
2022-12-03T21:06:58.839Z,12.60
2022-12-03T21:09:06.377Z,14.02
2022-12-03T21:11:15.046Z,12.68
2022-12-03T21:13:23.257Z,15.73
2022-12-03T21:15:32.581Z,10.30
2022-12-03T21:17:39.351Z,9.35
2022-12-03T21:19:46.534Z,12.15
2022-12-03T21:21:53.409Z,12.70
2022-12-03T21:24:02.229Z,13.43
2022-12-03T21:26:10.644Z,15.20
2022-12-03T21:28:17.873Z,13.27
2022-12-03T21:30:24.731Z,19.50
2022-12-03T21:32:31.981Z,17.58
2022-12-03T21:34:38.855Z,16.73
2022-12-03T21:36:46.909Z,13.95
2022-12-03T21:38:54.190Z,15.55
2022-12-03T21:41:03.983Z,15.60
2022-12-03T21:43:10.755Z,14.35
2022-12-03T21:45:18.039Z,15.02
2022-12-03T21:47:24.914Z,14.25
2022-12-03T21:49:32.458Z,15.00
2022-12-03T21:51:39.483Z,15.13
2022-12-03T21:53:46.509Z,16.25
2022-12-03T21:55:53.333Z,15.00
2022-12-03T21:58:02.204Z,16.20
2022-12-03T22:00:10.358Z,15.50
2022-12-03T22:02:17.735Z,14.95
2022-12-03T22:04:24.927Z,12.00
2022-12-03T22:06:32.468Z,13.70
2022-12-03T22:08:39.343Z,14.75
2022-12-03T22:10:46.525Z,12.73
2022-12-03T22:12:53.298Z,12.75
2022-12-03T22:15:02.121Z,12.98
2022-12-03T22:17:08.937Z,11.93
2022-12-03T22:19:16.375Z,13.63
2022-12-03T22:21:25.553Z,13.77
2022-12-03T22:23:34.167Z,13.93
2022-12-03T22:25:41.045Z,15.40
2022-12-03T22:27:48.020Z,19.08
2022-12-03T22:29:55.153Z,16.35
2022-12-03T22:32:04.124Z,17.55
2022-12-03T22:34:10.949Z,13.93
2022-12-03T22:36:21.585Z,14.48
2022-12-03T22:38:29.103Z,14.05
2022-12-03T22:40:36.435Z,16.48
2022-12-03T22:42:49.277Z,19.15
2022-12-03T22:44:57.660Z,17.85
2022-12-03T22:47:06.734Z,19.00
2022-12-03T22:49:14.633Z,26.88
2022-12-03T22:51:23.557Z,23.98
2022-12-03T22:53:30.379Z,36.75
2022-12-03T22:55:37.716Z,39.95
2022-12-03T22:57:44.588Z,30.92
2022-12-03T22:59:51.706Z,32.78
2022-12-03T23:01:58.765Z,32.78
2022-12-03T23:04:09.201Z,31.95
2022-12-03T23:06:16.541Z,33.38
2022-12-03T23:08:24.952Z,34.45
2022-12-03T23:10:34.058Z,28.30
2022-12-03T23:12:41.414Z,23.40
2022-12-03T23:14:48.235Z,22.65
2022-12-03T23:16:55.343Z,21.35
2022-12-03T23:19:02.909Z,21.75
2022-12-03T23:21:11.935Z,20.67
2022-12-03T23:23:19.627Z,18.83
2022-12-03T23:25:27.011Z,21.17
2022-12-03T23:27:33.785Z,20.45
2022-12-03T23:29:40.811Z,20.10
2022-12-03T23:31:47.589Z,18.48
2022-12-03T23:33:55.384Z,17.67
2022-12-03T23:36:02.409Z,17.35
2022-12-03T23:38:11.433Z,17.02
2022-12-03T23:40:18.767Z,25.52
2022-12-03T23:42:26.104Z,43.53
2022-12-03T23:44:32.925Z,102.45
2022-12-03T23:46:43.410Z,138.65
2022-12-03T23:48:50.310Z,141.50
2022-12-03T23:50:57.440Z,137.82
2022-12-03T23:53:04.314Z,155.50
2022-12-03T23:55:13.802Z,112.32
2022-12-03T23:57:20.982Z,82.60
2022-12-03T23:59:28.214Z,67.35
